createdAt,value
2023-04-18T04:40:06.416Z,100356.89
2023-04-18T04:42:43.942Z,100355.70
2023-04-18T04:45:17.488Z,100355.71
2023-04-18T04:47:46.787Z,100354.20
2023-04-18T04:50:15.730Z,100353.89
2023-04-18T04:52:44.154Z,100351.18
2023-04-18T04:55:12.175Z,100350.05
2023-04-18T04:57:41.453Z,100351.11
2023-04-18T05:00:21.849Z,100351.69
2023-04-18T05:02:50.224Z,100355.73
2023-04-18T05:05:18.803Z,100357.19
2023-04-18T05:07:47.207Z,100362.46
2023-04-18T05:10:15.279Z,100357.83
2023-04-18T05:12:43.438Z,100362.09
2023-04-18T05:15:12.409Z,100358.17
2023-04-18T05:17:40.976Z,100361.02
2023-04-18T05:20:09.266Z,100354.65
2023-04-18T05:22:37.884Z,100347.61
2023-04-18T05:25:06.434Z,100343.86
2023-04-18T05:27:34.959Z,100340.25
2023-04-18T05:30:03.435Z,100333.86
2023-04-18T05:32:33.889Z,100328.50
2023-04-18T05:35:11.716Z,100331.64
2023-04-18T05:37:43.353Z,100334.10
2023-04-18T05:40:12.360Z,100335.86
2023-04-18T05:43:01.993Z,100331.33
2023-04-18T05:45:30.751Z,100330.84
2023-04-18T05:48:32.807Z,100327.55
2023-04-18T05:51:35.923Z,100330.86
2023-04-18T05:54:37.036Z,100326.70
2023-04-18T05:57:29.999Z,100326.70
2023-04-18T06:00:14.779Z,100326.88
2023-04-18T06:02:50.998Z,100325.29
2023-04-18T06:05:42.345Z,100322.66
2023-04-18T06:08:10.540Z,100318.13
2023-04-18T06:10:39.188Z,100321.98
2023-04-18T06:13:07.296Z,100313.84
2023-04-18T06:15:35.472Z,100316.84
2023-04-18T06:18:07.414Z,100310.73
2023-04-18T06:20:56.812Z,100309.02
2023-04-18T06:23:38.605Z,100309.52
2023-04-18T06:26:07.519Z,100306.19
2023-04-18T06:28:36.394Z,100305.80
2023-04-18T06:31:04.870Z,100301.56
2023-04-18T06:33:35.828Z,100296.79
2023-04-18T06:36:05.052Z,100301.10
2023-04-18T06:38:38.889Z,100297.73
2023-04-18T06:41:16.327Z,100298.20
2023-04-18T06:44:03.460Z,100300.60
2023-04-18T06:46:38.898Z,100300.56
2023-04-18T06:49:17.050Z,100302.29
2023-04-18T06:52:07.217Z,100305.82
2023-04-18T06:54:41.798Z,100303.74
2023-04-18T06:57:20.314Z,100298.16
2023-04-18T06:59:55.442Z,100300.26
2023-04-18T07:02:24.003Z,100296.59
2023-04-18T07:04:57.921Z,100293.45
2023-04-18T07:07:33.662Z,100288.16
2023-04-18T07:10:07.858Z,100284.45
2023-04-18T07:12:37.086Z,100288.23
2023-04-18T07:15:05.463Z,100282.05
2023-04-18T07:17:33.526Z,100282.35
2023-04-18T07:20:01.833Z,100278.94
2023-04-18T07:22:31.562Z,100279.77
2023-04-18T07:24:59.493Z,100278.82
2023-04-18T07:27:27.570Z,100271.73
2023-04-18T07:29:55.873Z,100266.76
2023-04-18T07:32:23.984Z,100261.80
2023-04-18T07:34:52.892Z,100262.60
2023-04-18T07:37:21.486Z,100260.94
2023-04-18T07:39:49.521Z,100252.98
2023-04-18T07:42:17.546Z,100253.45
2023-04-18T07:44:45.744Z,100254.81
2023-04-18T07:47:23.906Z,100257.90
2023-04-18T07:49:53.822Z,100256.42
2023-04-18T07:52:22.236Z,100261.25
2023-04-18T07:54:51.016Z,100259.61
2023-04-18T07:57:19.052Z,100261.35
2023-04-18T07:59:47.303Z,100258.55
2023-04-18T08:02:16.448Z,100262.52
2023-04-18T08:04:46.970Z,100257.50
2023-04-18T08:07:17.836Z,100255.94
2023-04-18T08:09:45.993Z,100252.43
2023-04-18T08:12:14.060Z,100254.38
2023-04-18T08:14:42.264Z,100249.78
2023-04-18T08:17:10.951Z,100248.30
2023-04-18T08:19:40.683Z,100244.90
2023-04-18T08:22:09.728Z,100242.21
2023-04-18T08:24:41.701Z,100242.15
2023-04-18T08:27:15.026Z,100238.54
2023-04-18T08:29:43.315Z,100237.88
2023-04-18T08:32:11.658Z,100240.42
2023-04-18T08:34:40.981Z,100232.61
2023-04-18T08:37:09.042Z,100229.44
2023-04-18T08:39:37.054Z,100232.05
2023-04-18T08:42:05.588Z,100234.80
2023-04-18T08:44:34.225Z,100234.48
2023-04-18T08:47:03.148Z,100232.45
2023-04-18T08:49:31.716Z,100236.52
2023-04-18T08:52:24.597Z,100231.30
2023-04-18T08:55:52.482Z,100233.16
2023-04-18T08:59:17.803Z,100236.06
2023-04-18T09:02:29.270Z,100230.39
2023-04-18T09:09:10.683Z,100227.52
2023-04-18T09:12:18.261Z,100230.98
2023-04-18T09:14:47.209Z,100229.97
2023-04-18T09:17:18.307Z,100227.90
2023-04-18T09:19:48.984Z,100228.81
2023-04-18T09:22:17.496Z,100226.30
2023-04-18T09:24:57.342Z,100229.03
2023-04-18T09:27:25.872Z,100227.14
2023-04-18T09:29:56.557Z,100223.50
2023-04-18T09:32:27.447Z,100225.38
2023-04-18T09:35:04.561Z,100214.28
2023-04-18T09:37:51.482Z,100221.06
2023-04-18T09:40:42.855Z,100221.26
2023-04-18T09:43:22.205Z,100224.48
2023-04-18T09:45:50.630Z,100224.37
2023-04-18T09:48:20.243Z,100223.98
2023-04-18T09:50:51.632Z,100220.73
2023-04-18T09:53:27.286Z,100216.84
2023-04-18T09:55:57.864Z,100212.11
2023-04-18T09:58:46.518Z,100218.36
2023-04-18T10:01:30.456Z,100212.47
2023-04-18T10:04:05.751Z,100208.81
2023-04-18T10:06:34.791Z,100205.40
2023-04-18T10:09:12.885Z,100206.77
2023-04-18T10:11:44.421Z,100199.44
2023-04-18T10:14:15.213Z,100192.92
2023-04-18T10:16:50.403Z,100194.09
2023-04-18T10:19:21.948Z,100191.86
2023-04-18T10:21:53.957Z,100188.29
2023-04-18T10:24:41.122Z,100184.81
2023-04-18T10:27:09.322Z,100186.48
2023-04-18T10:29:51.964Z,100181.96
2023-04-18T10:32:24.385Z,100178.70
2023-04-18T10:34:53.597Z,100178.95
2023-04-18T10:37:26.664Z,100179.62
2023-04-18T10:39:58.513Z,100180.22
2023-04-18T10:42:48.967Z,100180.73
2023-04-18T10:45:23.100Z,100177.77
2023-04-18T10:48:13.285Z,100169.63
2023-04-18T10:51:07.180Z,100177.34
2023-04-18T10:53:54.075Z,100180.20
2023-04-18T10:56:23.693Z,100182.16
2023-04-18T10:58:52.197Z,100183.41
2023-04-18T11:01:31.170Z,100181.83
2023-04-18T11:04:00.997Z,100177.14
2023-04-18T11:06:31.344Z,100182.65
2023-04-18T11:09:11.993Z,100179.15
2023-04-18T11:11:41.024Z,100176.63
2023-04-18T11:14:09.064Z,100173.13
2023-04-18T11:16:37.286Z,100168.11
2023-04-18T11:19:19.115Z,100170.66
2023-04-18T11:21:47.185Z,100170.10
2023-04-18T11:24:22.501Z,100165.48
2023-04-18T11:26:50.699Z,100162.54
2023-04-18T11:29:18.826Z,100158.70
2023-04-18T11:31:51.383Z,100160.26
2023-04-18T11:34:19.677Z,100155.84
2023-04-18T11:36:51.339Z,100156.27
2023-04-18T11:39:19.408Z,100158.19
2023-04-18T11:41:50.593Z,100148.67
2023-04-18T11:44:18.911Z,100149.10
2023-04-18T11:46:47.761Z,100146.73
2023-04-18T11:49:25.692Z,100144.40
2023-04-18T11:51:53.799Z,100143.82
2023-04-18T11:54:44.810Z,100132.29
2023-04-18T11:57:23.025Z,100140.66
2023-04-18T12:00:00.960Z,100139.57
2023-04-18T12:02:48.019Z,100136.35
2023-04-18T12:05:26.513Z,100131.06
2023-04-18T12:07:54.897Z,100127.33
2023-04-18T12:10:24.048Z,100124.32
2023-04-18T12:12:52.860Z,100128.38
2023-04-18T12:15:21.898Z,100129.14
2023-04-18T12:17:52.129Z,100127.00
2023-04-18T12:20:20.194Z,100129.54
2023-04-18T12:22:51.606Z,100127.59
2023-04-18T12:25:26.203Z,100123.20
2023-04-18T12:27:55.377Z,100117.08
2023-04-18T12:30:24.951Z,100114.43
2023-04-18T12:32:53.753Z,100102.48
2023-04-18T12:35:21.933Z,100109.04
2023-04-18T12:37:50.329Z,100106.42
2023-04-18T12:40:22.857Z,100106.52
2023-04-18T12:42:51.147Z,100105.20
2023-04-18T12:45:19.395Z,100098.80
2023-04-18T12:47:47.926Z,100096.36
2023-04-18T12:50:16.968Z,100097.07
2023-04-18T12:52:45.132Z,100098.91
2023-04-18T12:55:13.150Z,100099.12
2023-04-18T12:57:42.121Z,100100.86
2023-04-18T13:00:13.828Z,100094.33
2023-04-18T13:02:43.667Z,100096.96
2023-04-18T13:05:12.696Z,100100.02
2023-04-18T13:07:42.522Z,100100.00
2023-04-18T13:10:11.839Z,100099.16
2023-04-18T13:12:40.748Z,100094.32
2023-04-18T13:15:09.182Z,100094.07
2023-04-18T13:17:38.148Z,100096.95
2023-04-18T13:20:06.857Z,100094.25
2023-04-18T13:22:35.031Z,100089.60
